sensor_id;sensor_type;location;lat;lon;timestamp;P1;durP1;ratioP1;P2;durP2;ratioP2
35223;SDS011;21367;51.930;8.112;2023-05-21T00:00:24;15.43;;;5.25;;
35223;SDS011;21367;51.930;8.112;2023-05-21T00:05:31;11.60;;;5.75;;
35223;SDS011;21367;51.930;8.112;2023-05-21T00:10:36;11.20;;;5.88;;
35223;SDS011;21367;51.930;8.112;2023-05-21T00:15:40;13.13;;;6.57;;
35223;SDS011;21367;51.930;8.112;2023-05-21T00:20:48;10.33;;;6.43;;
35223;SDS011;21367;51.930;8.112;2023-05-21T00:25:52;14.43;;;6.38;;
35223;SDS011;21367;51.930;8.112;2023-05-21T00:30:56;11.32;;;6.82;;
35223;SDS011;21367;51.930;8.112;2023-05-21T00:36:03;10.40;;;6.00;;
35223;SDS011;21367;51.930;8.112;2023-05-21T00:41:08;11.30;;;5.97;;
35223;SDS011;21367;51.930;8.112;2023-05-21T00:46:12;11.27;;;6.80;;
35223;SDS011;21367;51.930;8.112;2023-05-21T00:51:23;12.43;;;6.53;;
35223;SDS011;21367;51.930;8.112;2023-05-21T00:56:29;11.13;;;6.25;;
35223;SDS011;21367;51.930;8.112;2023-05-21T01:01:36;11.98;;;6.97;;
35223;SDS011;21367;51.930;8.112;2023-05-21T01:06:42;14.43;;;6.88;;
35223;SDS011;21367;51.930;8.112;2023-05-21T01:11:46;11.43;;;7.38;;
35223;SDS011;21367;51.930;8.112;2023-05-21T01:16:52;13.55;;;6.93;;
35223;SDS011;21367;51.930;8.112;2023-05-21T01:22:02;14.75;;;7.10;;
35223;SDS011;21367;51.930;8.112;2023-05-21T01:27:11;12.20;;;7.15;;
35223;SDS011;21367;51.930;8.112;2023-05-21T01:32:15;11.57;;;6.95;;
35223;SDS011;21367;51.930;8.112;2023-05-21T01:37:29;13.43;;;7.47;;
35223;SDS011;21367;51.930;8.112;2023-05-21T01:42:42;15.48;;;7.82;;
35223;SDS011;21367;51.930;8.112;2023-05-21T01:47:48;10.45;;;6.72;;
35223;SDS011;21367;51.930;8.112;2023-05-21T01:52:56;11.57;;;7.00;;
35223;SDS011;21367;51.930;8.112;2023-05-21T01:58:03;11.48;;;7.15;;
35223;SDS011;21367;51.930;8.112;2023-05-21T02:03:07;13.63;;;7.85;;
35223;SDS011;21367;51.930;8.112;2023-05-21T02:08:11;16.77;;;6.85;;
35223;SDS011;21367;51.930;8.112;2023-05-21T02:13:17;13.90;;;7.97;;
35223;SDS011;21367;51.930;8.112;2023-05-21T02:18:24;19.10;;;7.50;;
35223;SDS011;21367;51.930;8.112;2023-05-21T02:23:28;14.02;;;8.32;;
35223;SDS011;21367;51.930;8.112;2023-05-21T02:28:36;21.38;;;7.50;;
35223;SDS011;21367;51.930;8.112;2023-05-21T02:33:40;20.13;;;7.90;;
35223;SDS011;21367;51.930;8.112;2023-05-21T02:38:44;18.52;;;7.88;;
35223;SDS011;21367;51.930;8.112;2023-05-21T02:43:51;13.48;;;7.60;;
35223;SDS011;21367;51.930;8.112;2023-05-21T02:48:55;12.75;;;7.65;;
35223;SDS011;21367;51.930;8.112;2023-05-21T02:54:00;16.70;;;8.37;;
35223;SDS011;21367;51.930;8.112;2023-05-21T02:59:07;12.32;;;7.22;;
35223;SDS011;21367;51.930;8.112;2023-05-21T03:04:12;11.35;;;7.07;;
35223;SDS011;21367;51.930;8.112;2023-05-21T03:09:16;14.48;;;7.72;;
35223;SDS011;21367;51.930;8.112;2023-05-21T03:14:24;14.65;;;7.50;;
35223;SDS011;21367;51.930;8.112;2023-05-21T03:19:28;11.50;;;7.20;;
35223;SDS011;21367;51.930;8.112;2023-05-21T03:24:36;14.60;;;8.13;;
35223;SDS011;21367;51.930;8.112;2023-05-21T03:29:53;13.50;;;7.22;;
35223;SDS011;21367;51.930;8.112;2023-05-21T03:34:59;15.27;;;7.35;;
35223;SDS011;21367;51.930;8.112;2023-05-21T03:40:03;14.30;;;8.18;;
35223;SDS011;21367;51.930;8.112;2023-05-21T03:45:11;13.13;;;7.90;;
35223;SDS011;21367;51.930;8.112;2023-05-21T03:50:53;14.57;;;7.93;;
35223;SDS011;21367;51.930;8.112;2023-05-21T03:55:58;13.85;;;8.18;;
35223;SDS011;21367;51.930;8.112;2023-05-21T04:01:06;15.15;;;8.07;;
35223;SDS011;21367;51.930;8.112;2023-05-21T04:06:11;15.25;;;7.40;;
35223;SDS011;21367;51.930;8.112;2023-05-21T04:11:15;17.95;;;7.72;;
35223;SDS011;21367;51.930;8.112;2023-05-21T04:16:22;15.80;;;7.68;;
35223;SDS011;21367;51.930;8.112;2023-05-21T04:21:27;18.60;;;8.45;;
35223;SDS011;21367;51.930;8.112;2023-05-21T04:26:32;15.63;;;8.57;;
35223;SDS011;21367;51.930;8.112;2023-05-21T04:31:39;13.68;;;7.90;;
35223;SDS011;21367;51.930;8.112;2023-05-21T04:36:43;19.67;;;8.20;;
35223;SDS011;21367;51.930;8.112;2023-05-21T04:41:48;19.98;;;9.18;;
35223;SDS011;21367;51.930;8.112;2023-05-21T04:46:57;15.93;;;8.35;;
35223;SDS011;21367;51.930;8.112;2023-05-21T04:52:04;16.75;;;8.50;;
35223;SDS011;21367;51.930;8.112;2023-05-21T04:57:08;16.15;;;9.02;;
35223;SDS011;21367;51.930;8.112;2023-05-21T05:02:15;15.20;;;7.63;;
35223;SDS011;21367;51.930;8.112;2023-05-21T05:07:19;16.08;;;8.80;;
35223;SDS011;21367;51.930;8.112;2023-05-21T05:12:24;15.57;;;8.15;;
35223;SDS011;21367;51.930;8.112;2023-05-21T05:17:32;17.27;;;8.50;;
35223;SDS011;21367;51.930;8.112;2023-05-21T05:22:36;14.55;;;8.80;;
35223;SDS011;21367;51.930;8.112;2023-05-21T05:27:40;13.70;;;8.23;;
35223;SDS011;21367;51.930;8.112;2023-05-21T05:32:47;18.23;;;9.30;;
35223;SDS011;21367;51.930;8.112;2023-05-21T05:37:51;16.08;;;9.07;;
35223;SDS011;21367;51.930;8.112;2023-05-21T05:42:59;14.18;;;8.68;;
35223;SDS011;21367;51.930;8.112;2023-05-21T05:48:06;16.80;;;8.82;;
35223;SDS011;21367;51.930;8.112;2023-05-21T05:53:11;20.17;;;8.68;;
35223;SDS011;21367;51.930;8.112;2023-05-21T05:58:15;19.60;;;9.57;;
35223;SDS011;21367;51.930;8.112;2023-05-21T06:03:33;15.85;;;9.45;;
35223;SDS011;21367;51.930;8.112;2023-05-21T06:08:46;17.50;;;8.57;;
35223;SDS011;21367;51.930;8.112;2023-05-21T06:13:52;18.48;;;9.07;;
35223;SDS011;21367;51.930;8.112;2023-05-21T06:19:00;15.73;;;8.45;;
35223;SDS011;21367;51.930;8.112;2023-05-21T06:24:04;15.55;;;9.20;;
35223;SDS011;21367;51.930;8.112;2023-05-21T06:29:12;17.13;;;8.50;;
35223;SDS011;21367;51.930;8.112;2023-05-21T06:34:19;18.52;;;8.95;;
35223;SDS011;21367;51.930;8.112;2023-05-21T06:39:23;18.05;;;8.98;;
35223;SDS011;21367;51.930;8.112;2023-05-21T06:44:28;22.50;;;8.93;;
35223;SDS011;21367;51.930;8.112;2023-05-21T06:49:46;19.27;;;8.70;;
35223;SDS011;21367;51.930;8.112;2023-05-21T06:54:49;21.35;;;8.35;;
35223;SDS011;21367;51.930;8.112;2023-05-21T06:59:54;16.50;;;8.38;;
35223;SDS011;21367;51.930;8.112;2023-05-21T07:05:03;15.93;;;8.50;;
35223;SDS011;21367;51.930;8.112;2023-05-21T07:10:09;17.38;;;8.60;;
35223;SDS011;21367;51.930;8.112;2023-05-21T07:15:13;17.23;;;9.77;;
35223;SDS011;21367;51.930;8.112;2023-05-21T07:20:21;16.30;;;8.80;;
35223;SDS011;21367;51.930;8.112;2023-05-21T07:25:28;20.60;;;10.32;;
35223;SDS011;21367;51.930;8.112;2023-05-21T07:30:32;16.63;;;8.85;;
35223;SDS011;21367;51.930;8.112;2023-05-21T07:35:43;15.65;;;8.63;;
35223;SDS011;21367;51.930;8.112;2023-05-21T07:40:47;19.50;;;9.10;;
35223;SDS011;21367;51.930;8.112;2023-05-21T07:45:51;18.33;;;10.18;;
35223;SDS011;21367;51.930;8.112;2023-05-21T07:50:58;15.40;;;10.10;;
35223;SDS011;21367;51.930;8.112;2023-05-21T07:56:04;19.40;;;10.63;;
35223;SDS011;21367;51.930;8.112;2023-05-21T08:01:09;28.15;;;11.85;;
35223;SDS011;21367;51.930;8.112;2023-05-21T08:06:16;22.20;;;11.73;;
35223;SDS011;21367;51.930;8.112;2023-05-21T08:11:21;18.05;;;10.10;;
35223;SDS011;21367;51.930;8.112;2023-05-21T08:16:27;20.73;;;9.88;;
35223;SDS011;21367;51.930;8.112;2023-05-21T08:21:33;21.25;;;10.00;;
35223;SDS011;21367;51.930;8.112;2023-05-21T08:26:37;18.38;;;9.77;;
35223;SDS011;21367;51.930;8.112;2023-05-21T08:31:44;15.23;;;9.85;;
35223;SDS011;21367;51.930;8.112;2023-05-21T08:36:51;19.48;;;10.43;;
35223;SDS011;21367;51.930;8.112;2023-05-21T08:42:33;19.33;;;10.30;;
35223;SDS011;21367;51.930;8.112;2023-05-21T08:47:42;21.63;;;10.05;;
35223;SDS011;21367;51.930;8.112;2023-05-21T08:52:51;17.88;;;11.15;;
35223;SDS011;21367;51.930;8.112;2023-05-21T08:57:58;20.15;;;10.60;;
35223;SDS011;21367;51.930;8.112;2023-05-21T09:03:03;25.92;;;11.38;;
35223;SDS011;21367;51.930;8.112;2023-05-21T09:08:15;18.10;;;10.25;;
35223;SDS011;21367;51.930;8.112;2023-05-21T09:13:41;18.77;;;9.65;;
35223;SDS011;21367;51.930;8.112;2023-05-21T09:18:56;18.05;;;10.55;;
35223;SDS011;21367;51.930;8.112;2023-05-21T09:24:08;18.65;;;9.68;;
35223;SDS011;21367;51.930;8.112;2023-05-21T09:29:14;16.63;;;9.45;;
35223;SDS011;21367;51.930;8.112;2023-05-21T09:34:19;18.23;;;10.18;;
35223;SDS011;21367;51.930;8.112;2023-05-21T09:39:38;20.27;;;10.95;;
35223;SDS011;21367;51.930;8.112;2023-05-21T09:44:43;16.23;;;10.02;;
35223;SDS011;21367;51.930;8.112;2023-05-21T09:49:47;24.08;;;11.32;;
35223;SDS011;21367;51.930;8.112;2023-05-21T09:54:54;19.92;;;11.05;;
35223;SDS011;21367;51.930;8.112;2023-05-21T09:59:57;23.13;;;12.35;;
35223;SDS011;21367;51.930;8.112;2023-05-21T10:05:01;21.30;;;11.38;;
35223;SDS011;21367;51.930;8.112;2023-05-21T10:10:12;22.02;;;11.82;;
35223;SDS011;21367;51.930;8.112;2023-05-21T10:15:18;17.95;;;11.00;;
35223;SDS011;21367;51.930;8.112;2023-05-21T10:20:25;22.15;;;12.63;;
35223;SDS011;21367;51.930;8.112;2023-05-21T10:25:32;17.67;;;12.10;;
35223;SDS011;21367;51.930;8.112;2023-05-21T10:30:38;25.33;;;12.68;;
35223;SDS011;21367;51.930;8.112;2023-05-21T10:35:42;22.25;;;12.18;;
35223;SDS011;21367;51.930;8.112;2023-05-21T10:40:51;22.85;;;12.68;;
35223;SDS011;21367;51.930;8.112;2023-05-21T10:46:00;22.13;;;12.80;;
35223;SDS011;21367;51.930;8.112;2023-05-21T10:51:25;26.88;;;11.30;;
35223;SDS011;21367;51.930;8.112;2023-05-21T10:56:37;19.40;;;12.75;;
35223;SDS011;21367;51.930;8.112;2023-05-21T11:01:45;24.10;;;12.27;;
35223;SDS011;21367;51.930;8.112;2023-05-21T11:06:52;26.92;;;13.10;;
35223;SDS011;21367;51.930;8.112;2023-05-21T11:11:59;21.77;;;12.20;;
35223;SDS011;21367;51.930;8.112;2023-05-21T11:17:08;28.65;;;12.88;;
35223;SDS011;21367;51.930;8.112;2023-05-21T11:22:21;22.70;;;12.82;;
35223;SDS011;21367;51.930;8.112;2023-05-21T11:27:32;22.52;;;12.25;;
35223;SDS011;21367;51.930;8.112;2023-05-21T11:38:20;30.65;;;19.80;;
35223;SDS011;21367;51.930;8.112;2023-05-21T11:43:26;28.00;;;17.95;;
35223;SDS011;21367;51.930;8.112;2023-05-21T11:48:30;24.80;;;14.13;;
35223;SDS011;21367;51.930;8.112;2023-05-21T11:53:35;28.50;;;15.97;;
35223;SDS011;21367;51.930;8.112;2023-05-21T11:58:43;26.60;;;15.20;;
35223;SDS011;21367;51.930;8.112;2023-05-21T12:03:48;26.48;;;16.48;;
35223;SDS011;21367;51.930;8.112;2023-05-21T12:14:01;30.83;;;18.13;;
35223;SDS011;21367;51.930;8.112;2023-05-21T12:19:05;25.77;;;14.43;;
35223;SDS011;21367;51.930;8.112;2023-05-21T12:24:09;23.30;;;13.93;;
35223;SDS011;21367;51.930;8.112;2023-05-21T12:29:16;40.30;;;24.58;;
35223;SDS011;21367;51.930;8.112;2023-05-21T12:39:56;28.05;;;16.02;;
35223;SDS011;21367;51.930;8.112;2023-05-21T12:45:07;28.50;;;15.25;;
35223;SDS011;21367;51.930;8.112;2023-05-21T12:50:13;24.67;;;14.52;;
35223;SDS011;21367;51.930;8.112;2023-05-21T12:55:17;32.42;;;17.15;;
35223;SDS011;21367;51.930;8.112;2023-05-21T13:00:25;26.25;;;15.15;;
35223;SDS011;21367;51.930;8.112;2023-05-21T13:05:29;19.63;;;12.77;;
35223;SDS011;21367;51.930;8.112;2023-05-21T13:10:32;20.83;;;12.85;;
35223;SDS011;21367;51.930;8.112;2023-05-21T13:15:39;22.23;;;12.05;;
35223;SDS011;21367;51.930;8.112;2023-05-21T13:20:43;26.63;;;13.60;;
35223;SDS011;21367;51.930;8.112;2023-05-21T13:25:47;17.88;;;12.70;;
35223;SDS011;21367;51.930;8.112;2023-05-21T13:30:56;24.30;;;13.13;;
35223;SDS011;21367;51.930;8.112;2023-05-21T13:35:59;25.13;;;13.68;;
35223;SDS011;21367;51.930;8.112;2023-05-21T13:41:03;21.20;;;14.23;;
35223;SDS011;21367;51.930;8.112;2023-05-21T13:46:10;28.80;;;14.48;;
35223;SDS011;21367;51.930;8.112;2023-05-21T13:51:15;24.38;;;13.55;;
35223;SDS011;21367;51.930;8.112;2023-05-21T13:56:20;22.67;;;13.68;;
35223;SDS011;21367;51.930;8.112;2023-05-21T14:01:27;22.20;;;13.07;;
35223;SDS011;21367;51.930;8.112;2023-05-21T14:06:31;28.10;;;13.68;;
35223;SDS011;21367;51.930;8.112;2023-05-21T14:11:35;21.92;;;13.80;;
35223;SDS011;21367;51.930;8.112;2023-05-21T14:16:43;16.23;;;12.07;;
35223;SDS011;21367;51.930;8.112;2023-05-21T14:21:50;17.90;;;12.68;;
35223;SDS011;21367;51.930;8.112;2023-05-21T14:26:55;22.73;;;11.85;;
35223;SDS011;21367;51.930;8.112;2023-05-21T14:32:05;19.17;;;12.27;;
35223;SDS011;21367;51.930;8.112;2023-05-21T14:37:10;18.20;;;12.05;;
35223;SDS011;21367;51.930;8.112;2023-05-21T14:42:13;18.90;;;12.50;;
35223;SDS011;21367;51.930;8.112;2023-05-21T14:47:20;18.92;;;12.38;;
35223;SDS011;21367;51.930;8.112;2023-05-21T14:52:24;25.02;;;13.27;;
35223;SDS011;21367;51.930;8.112;2023-05-21T14:57:27;21.42;;;13.25;;
35223;SDS011;21367;51.930;8.112;2023-05-21T15:02:34;20.48;;;13.18;;
35223;SDS011;21367;51.930;8.112;2023-05-21T15:07:40;37.05;;;14.93;;
35223;SDS011;21367;51.930;8.112;2023-05-21T15:12:44;22.88;;;13.70;;
35223;SDS011;21367;51.930;8.112;2023-05-21T15:17:52;22.55;;;14.57;;
35223;SDS011;21367;51.930;8.112;2023-05-21T15:22:56;23.95;;;15.05;;
35223;SDS011;21367;51.930;8.112;2023-05-21T15:28:00;27.77;;;15.82;;
35223;SDS011;21367;51.930;8.112;2023-05-21T15:33:07;24.63;;;15.55;;
35223;SDS011;21367;51.930;8.112;2023-05-21T15:38:10;26.02;;;15.95;;
35223;SDS011;21367;51.930;8.112;2023-05-21T15:43:14;24.90;;;16.35;;
35223;SDS011;21367;51.930;8.112;2023-05-21T15:48:21;26.65;;;15.73;;
35223;SDS011;21367;51.930;8.112;2023-05-21T15:53:24;31.27;;;16.27;;
35223;SDS011;21367;51.930;8.112;2023-05-21T15:58:28;23.40;;;15.50;;
35223;SDS011;21367;51.930;8.112;2023-05-21T16:03:35;26.43;;;14.80;;
35223;SDS011;21367;51.930;8.112;2023-05-21T16:08:39;34.03;;;15.40;;
35223;SDS011;21367;51.930;8.112;2023-05-21T16:13:43;24.40;;;14.63;;
35223;SDS011;21367;51.930;8.112;2023-05-21T16:18:49;27.00;;;15.68;;
35223;SDS011;21367;51.930;8.112;2023-05-21T16:23:53;34.63;;;15.18;;
35223;SDS011;21367;51.930;8.112;2023-05-21T16:28:57;24.27;;;15.32;;
35223;SDS011;21367;51.930;8.112;2023-05-21T16:34:03;26.10;;;16.08;;
35223;SDS011;21367;51.930;8.112;2023-05-21T16:39:07;24.42;;;16.13;;
35223;SDS011;21367;51.930;8.112;2023-05-21T16:44:10;23.52;;;15.70;;
35223;SDS011;21367;51.930;8.112;2023-05-21T16:49:17;23.90;;;15.25;;
35223;SDS011;21367;51.930;8.112;2023-05-21T16:54:21;25.27;;;15.38;;
35223;SDS011;21367;51.930;8.112;2023-05-21T16:59:25;25.98;;;15.88;;
35223;SDS011;21367;51.930;8.112;2023-05-21T17:04:31;29.30;;;15.93;;
35223;SDS011;21367;51.930;8.112;2023-05-21T17:09:37;30.00;;;14.18;;
35223;SDS011;21367;51.930;8.112;2023-05-21T17:14:41;26.63;;;15.55;;
35223;SDS011;21367;51.930;8.112;2023-05-21T17:19:48;24.10;;;14.80;;
35223;SDS011;21367;51.930;8.112;2023-05-21T17:24:51;22.60;;;14.55;;
35223;SDS011;21367;51.930;8.112;2023-05-21T17:29:55;23.17;;;15.32;;
35223;SDS011;21367;51.930;8.112;2023-05-21T17:35:02;25.08;;;16.15;;
35223;SDS011;21367;51.930;8.112;2023-05-21T17:40:06;22.17;;;16.33;;
35223;SDS011;21367;51.930;8.112;2023-05-21T17:45:11;25.35;;;15.70;;
35223;SDS011;21367;51.930;8.112;2023-05-21T17:50:18;23.33;;;14.43;;
35223;SDS011;21367;51.930;8.112;2023-05-21T17:55:22;23.63;;;14.70;;
35223;SDS011;21367;51.930;8.112;2023-05-21T18:00:28;25.67;;;16.25;;
35223;SDS011;21367;51.930;8.112;2023-05-21T18:05:35;30.23;;;15.45;;
35223;SDS011;21367;51.930;8.112;2023-05-21T18:10:40;31.75;;;15.65;;
35223;SDS011;21367;51.930;8.112;2023-05-21T18:15:44;24.73;;;15.87;;
35223;SDS011;21367;51.930;8.112;2023-05-21T18:20:51;27.30;;;14.55;;
35223;SDS011;21367;51.930;8.112;2023-05-21T18:25:55;21.02;;;14.80;;
35223;SDS011;21367;51.930;8.112;2023-05-21T18:30:59;23.92;;;15.30;;
35223;SDS011;21367;51.930;8.112;2023-05-21T18:36:10;26.38;;;14.48;;
35223;SDS011;21367;51.930;8.112;2023-05-21T18:41:14;19.20;;;13.27;;
35223;SDS011;21367;51.930;8.112;2023-05-21T18:46:19;24.47;;;14.30;;
35223;SDS011;21367;51.930;8.112;2023-05-21T18:51:26;22.85;;;14.10;;
35223;SDS011;21367;51.930;8.112;2023-05-21T18:56:30;23.75;;;13.88;;
35223;SDS011;21367;51.930;8.112;2023-05-21T19:01:34;22.45;;;14.57;;
35223;SDS011;21367;51.930;8.112;2023-05-21T19:06:40;21.45;;;14.07;;
35223;SDS011;21367;51.930;8.112;2023-05-21T19:11:45;26.10;;;14.85;;
35223;SDS011;21367;51.930;8.112;2023-05-21T19:16:51;24.13;;;13.70;;
35223;SDS011;21367;51.930;8.112;2023-05-21T19:21:58;30.73;;;14.63;;
35223;SDS011;21367;51.930;8.112;2023-05-21T19:27:02;25.50;;;13.82;;
35223;SDS011;21367;51.930;8.112;2023-05-21T19:32:06;26.05;;;12.80;;
35223;SDS011;21367;51.930;8.112;2023-05-21T19:37:12;18.95;;;9.23;;
35223;SDS011;21367;51.930;8.112;2023-05-21T19:42:17;14.85;;;9.25;;
35223;SDS011;21367;51.930;8.112;2023-05-21T19:47:22;13.70;;;8.68;;
35223;SDS011;21367;51.930;8.112;2023-05-21T19:52:29;18.02;;;9.20;;
35223;SDS011;21367;51.930;8.112;2023-05-21T19:57:32;14.82;;;9.15;;
35223;SDS011;21367;51.930;8.112;2023-05-21T20:02:36;15.30;;;9.23;;
35223;SDS011;21367;51.930;8.112;2023-05-21T20:07:43;22.58;;;10.05;;
35223;SDS011;21367;51.930;8.112;2023-05-21T20:12:47;16.98;;;9.95;;
35223;SDS011;21367;51.930;8.112;2023-05-21T20:17:52;17.20;;;9.75;;
35223;SDS011;21367;51.930;8.112;2023-05-21T20:23:01;17.13;;;10.57;;
35223;SDS011;21367;51.930;8.112;2023-05-21T20:28:06;16.23;;;10.60;;
35223;SDS011;21367;51.930;8.112;2023-05-21T20:33:11;19.42;;;10.40;;
35223;SDS011;21367;51.930;8.112;2023-05-21T20:38:18;22.58;;;12.25;;
35223;SDS011;21367;51.930;8.112;2023-05-21T20:43:25;24.33;;;12.55;;
35223;SDS011;21367;51.930;8.112;2023-05-21T20:48:29;21.50;;;12.77;;
35223;SDS011;21367;51.930;8.112;2023-05-21T20:53:37;26.73;;;14.35;;
35223;SDS011;21367;51.930;8.112;2023-05-21T20:58:41;22.85;;;13.98;;
35223;SDS011;21367;51.930;8.112;2023-05-21T21:03:45;29.27;;;12.80;;
35223;SDS011;21367;51.930;8.112;2023-05-21T21:08:52;21.63;;;13.38;;
35223;SDS011;21367;51.930;8.112;2023-05-21T21:13:57;23.70;;;12.88;;
35223;SDS011;21367;51.930;8.112;2023-05-21T21:19:01;21.15;;;12.98;;
35223;SDS011;21367;51.930;8.112;2023-05-21T21:24:09;22.70;;;13.75;;
35223;SDS011;21367;51.930;8.112;2023-05-21T21:29:13;19.52;;;12.82;;
35223;SDS011;21367;51.930;8.112;2023-05-21T21:34:17;21.48;;;14.25;;
35223;SDS011;21367;51.930;8.112;2023-05-21T21:44:29;21.08;;;14.07;;
35223;SDS011;21367;51.930;8.112;2023-05-21T21:49:33;23.10;;;14.20;;
35223;SDS011;21367;51.930;8.112;2023-05-21T21:54:40;20.30;;;13.85;;
35223;SDS011;21367;51.930;8.112;2023-05-21T21:59:44;25.98;;;14.90;;
35223;SDS011;21367;51.930;8.112;2023-05-21T22:04:47;23.38;;;13.38;;
35223;SDS011;21367;51.930;8.112;2023-05-21T22:09:54;25.95;;;15.05;;
35223;SDS011;21367;51.930;8.112;2023-05-21T22:14:58;22.27;;;14.20;;
35223;SDS011;21367;51.930;8.112;2023-05-21T22:20:05;24.75;;;14.82;;
35223;SDS011;21367;51.930;8.112;2023-05-21T22:25:12;26.00;;;15.48;;
35223;SDS011;21367;51.930;8.112;2023-05-21T22:30:18;23.25;;;15.00;;
35223;SDS011;21367;51.930;8.112;2023-05-21T22:35:21;24.95;;;15.77;;
35223;SDS011;21367;51.930;8.112;2023-05-21T22:40:28;27.08;;;16.38;;
35223;SDS011;21367;51.930;8.112;2023-05-21T22:45:32;29.95;;;16.48;;
35223;SDS011;21367;51.930;8.112;2023-05-21T22:50:37;26.40;;;16.07;;
35223;SDS011;21367;51.930;8.112;2023-05-21T22:55:44;27.92;;;16.67;;
35223;SDS011;21367;51.930;8.112;2023-05-21T23:00:48;29.55;;;16.95;;
35223;SDS011;21367;51.930;8.112;2023-05-21T23:05:52;25.50;;;15.35;;
35223;SDS011;21367;51.930;8.112;2023-05-21T23:10:58;28.77;;;15.48;;
35223;SDS011;21367;51.930;8.112;2023-05-21T23:16:02;21.70;;;11.93;;
35223;SDS011;21367;51.930;8.112;2023-05-21T23:21:06;20.75;;;12.48;;
35223;SDS011;21367;51.930;8.112;2023-05-21T23:26:13;19.73;;;10.88;;
35223;SDS011;21367;51.930;8.112;2023-05-21T23:31:17;19.95;;;10.38;;
35223;SDS011;21367;51.930;8.112;2023-05-21T23:36:21;15.05;;;10.00;;
35223;SDS011;21367;51.930;8.112;2023-05-21T23:41:27;20.75;;;11.55;;
35223;SDS011;21367;51.930;8.112;2023-05-21T23:46:31;23.23;;;13.55;;
35223;SDS011;21367;51.930;8.112;2023-05-21T23:51:35;24.67;;;13.50;;
35223;SDS011;21367;51.930;8.112;2023-05-21T23:56:43;30.52;;;14.82;;
